Time;durP1;ratioP1;P1;durP2;ratioP2;P2;SDS_P1;SDS_P2;PMS_P1;PMS_P2;Temp;Humidity;BMP_temperature;BMP_pressure;BME280_temperature;BME280_humidity;BME280_pressure;Samples;Min_cycle;Max_cycle;Signal;HPM_P1;HPM_P2
2021/12/13 00:02:09;0.00;0.00;0.62;0.00;0.00;0.62;1.67;0.90;;;21.80;27.90;;;;;;2266013;61;20409;-62
2021/12/13 00:05:05;0.00;0.00;0.62;0.00;0.00;0.62;2.00;1.03;;;21.80;28.00;;;;;;2265760;61;20385;-61
2021/12/13 00:07:58;0.00;0.00;0.62;0.00;0.00;0.62;1.80;1.07;;;21.80;28.00;;;;;;2265332;61;20388;-61
2021/12/13 00:10:47;0.00;0.00;0.62;0.00;0.00;0.62;1.70;1.17;;;21.80;28.10;;;;;;2265844;61;20408;-63
2021/12/13 00:13:38;0.00;0.00;0.62;0.00;0.00;0.62;1.20;0.80;;;21.80;28.10;;;;;;2266114;61;20760;-60
2021/12/13 00:16:29;0.00;0.00;0.62;0.00;0.00;0.62;1.40;0.90;;;21.80;28.20;;;;;;2265755;61;20401;-60
2021/12/13 00:19:19;0.00;0.00;0.62;0.00;0.00;0.62;1.60;1.10;;;21.80;28.20;;;;;;2265667;61;20438;-61
2021/12/13 00:22:09;0.00;0.00;0.62;0.00;0.00;0.62;1.30;0.90;;;21.80;28.20;;;;;;2265485;61;20372;-60
2021/12/13 00:25:03;0.00;0.00;0.62;0.00;0.00;0.62;1.83;1.10;;;21.80;28.20;;;;;;2266164;61;20412;-62
2021/12/13 00:27:53;0.00;0.00;0.62;0.00;0.00;0.62;1.47;1.03;;;21.80;28.20;;;;;;2265847;61;20481;-63
2021/12/13 00:30:52;0.00;0.00;0.62;0.00;0.00;0.62;1.77;1.30;;;21.80;28.30;;;;;;2265242;61;20369;-62
2021/12/13 00:33:44;0.00;0.00;0.62;0.00;0.00;0.62;1.70;1.13;;;21.80;28.30;;;;;;2265621;61;20720;-62
2021/12/13 00:36:36;0.00;0.00;0.62;0.00;0.00;0.62;1.43;1.13;;;21.70;28.20;;;;;;2265274;61;20353;-62
2021/12/13 00:39:28;0.00;0.00;0.62;0.00;0.00;0.62;1.50;0.87;;;21.70;28.30;;;;;;2265689;61;20388;-63
2021/12/13 00:42:15;0.00;0.00;0.62;0.00;0.00;0.62;1.60;1.00;;;21.70;28.30;;;;;;2265772;61;20370;-62
2021/12/13 00:45:07;0.00;0.00;0.62;0.00;0.00;0.62;1.80;1.10;;;21.80;28.40;;;;;;2265150;61;20471;-60
2021/12/13 00:47:53;0.00;0.00;0.62;0.00;0.00;0.62;1.77;1.10;;;21.70;28.30;;;;;;2265547;61;20389;-61
2021/12/13 00:50:46;0.00;0.00;0.62;0.00;0.00;0.62;1.50;0.90;;;21.70;28.30;;;;;;2263879;61;20357;-62
2021/12/13 00:53:36;0.00;0.00;0.62;0.00;0.00;0.62;1.50;0.97;;;21.70;28.40;;;;;;2265530;61;20396;-59
2021/12/13 00:57:10;0.00;0.00;0.62;0.00;0.00;0.62;1.80;1.20;;;21.70;28.40;;;;;;2265570;61;20689;-61
2021/12/13 01:00:03;0.00;0.00;0.62;0.00;0.00;0.62;1.50;1.07;;;21.70;28.40;;;;;;2264954;61;20437;-61
2021/12/13 01:02:56;0.00;0.00;0.62;0.00;0.00;0.62;1.80;1.30;;;21.70;28.40;;;;;;2265542;61;20748;-59
2021/12/13 01:06:01;0.00;0.00;0.62;0.00;0.00;0.62;1.40;1.07;;;21.70;28.50;;;;;;2265726;61;20404;-60
2021/12/13 01:09:55;0.00;0.00;0.62;0.00;0.00;0.62;1.37;1.00;;;21.70;28.50;;;;;;2265748;61;20357;-60
2021/12/13 01:12:41;0.00;0.00;0.62;0.00;0.00;0.62;1.70;1.10;;;21.70;28.50;;;;;;2261806;61;20385;-60
2021/12/13 01:15:34;0.00;0.00;0.62;0.00;0.00;0.62;1.50;1.00;;;21.60;28.50;;;;;;2265548;61;20353;-59
2021/12/13 01:18:34;0.00;0.00;0.62;0.00;0.00;0.62;1.60;1.10;;;21.60;28.50;;;;;;2265655;61;20357;-61
2021/12/13 01:21:31;0.00;0.00;0.62;0.00;0.00;0.62;2.00;1.10;;;21.70;28.70;;;;;;2265344;61;20765;-60
2021/12/13 01:24:41;0.00;0.00;0.62;0.00;0.00;0.62;1.50;1.10;;;21.60;29.10;;;;;;2265778;61;20361;-60
2021/12/13 01:27:31;0.00;0.00;0.62;0.00;0.00;0.62;1.70;1.30;;;21.60;28.60;;;;;;2265954;61;20405;-60
2021/12/13 01:30:22;0.00;0.00;0.62;0.00;0.00;0.62;1.53;1.03;;;21.60;28.60;;;;;;2265302;61;20353;-61
2021/12/13 01:33:12;0.00;0.00;0.62;0.00;0.00;0.62;1.90;1.30;;;21.60;28.70;;;;;;2265609;61;20468;-62
2021/12/13 01:36:01;0.00;0.00;0.62;0.00;0.00;0.62;1.60;1.30;;;21.60;28.70;;;;;;2265183;61;20364;-61
2021/12/13 01:38:50;0.00;0.00;0.62;0.00;0.00;0.62;1.90;1.40;;;21.60;29.30;;;;;;2265713;61;20415;-62
2021/12/13 01:41:40;0.00;0.00;0.62;0.00;0.00;0.62;1.70;1.30;;;21.60;28.70;;;;;;2265653;61;20411;-62
2021/12/13 01:44:30;0.00;0.00;0.62;0.00;0.00;0.62;1.50;1.20;;;21.60;28.80;;;;;;2264811;61;20757;-61
2021/12/13 01:47:18;0.00;0.00;0.62;0.00;0.00;0.62;2.03;1.50;;;21.60;28.80;;;;;;2265502;61;20625;-60
2021/12/13 01:50:13;0.00;0.00;0.62;0.00;0.00;0.62;2.37;1.40;;;21.60;28.80;;;;;;2265313;61;20626;-63
2021/12/13 01:53:00;0.00;0.00;0.62;0.00;0.00;0.62;2.03;1.60;;;21.60;28.80;;;;;;2265560;61;20361;-62
2021/12/13 01:55:48;0.00;0.00;0.62;0.00;0.00;0.62;1.90;1.50;;;21.60;28.80;;;;;;2265600;61;20416;-60
2021/12/13 01:58:42;0.00;0.00;0.62;0.00;0.00;0.62;2.00;1.30;;;21.60;28.90;;;;;;2264410;61;20357;-61
2021/12/13 02:01:27;0.00;0.00;0.62;0.00;0.00;0.62;2.17;1.40;;;21.60;28.90;;;;;;2265531;61;20416;-60
2021/12/13 02:04:15;0.00;0.00;0.62;0.00;0.00;0.62;2.10;1.57;;;21.60;28.90;;;;;;2265767;61;20432;-61
2021/12/13 02:07:04;0.00;0.00;0.62;0.00;0.00;0.62;2.07;1.53;;;21.50;28.80;;;;;;2265490;61;20484;-62
2021/12/13 02:09:49;0.00;0.00;0.62;0.00;0.00;0.62;2.83;1.97;;;21.50;28.80;;;;;;2266098;61;20590;-61
2021/12/13 02:12:36;0.00;0.00;0.62;0.00;0.00;0.62;2.73;1.77;;;21.60;28.90;;;;;;2266140;61;20432;-59
2021/12/13 02:18:31;0.00;0.00;0.62;0.00;0.00;0.62;1.93;1.60;;;21.50;28.90;;;;;;2266081;61;20364;-60
2021/12/13 02:21:27;0.00;0.00;0.62;0.00;0.00;0.62;2.30;2.10;;;21.50;28.90;;;;;;2265518;61;20384;-61
2021/12/13 02:24:13;0.00;0.00;0.62;0.00;0.00;0.62;1.90;1.70;;;21.50;28.90;;;;;;2266181;61;20434;-61
2021/12/13 02:26:59;0.00;0.00;0.62;0.00;0.00;0.62;1.90;1.67;;;21.50;29.00;;;;;;2266060;61;20360;-61
2021/12/13 02:29:45;0.00;0.00;0.62;0.00;0.00;0.62;1.90;1.53;;;21.50;29.00;;;;;;2265927;61;20361;-60
2021/12/13 02:32:35;0.00;0.00;0.62;0.00;0.00;0.62;2.67;2.03;;;21.50;29.00;;;;;;2265992;61;20380;-60
2021/12/13 02:35:25;0.00;0.00;0.62;0.00;0.00;0.62;2.43;2.00;;;21.50;29.00;;;;;;2265810;61;20357;-60
2021/12/13 02:38:13;0.00;0.00;0.62;0.00;0.00;0.62;2.00;1.80;;;21.50;29.10;;;;;;2266458;61;20360;-62
2021/12/13 02:41:01;0.00;0.00;0.62;0.00;0.00;0.62;2.67;1.60;;;21.50;29.10;;;;;;2266195;61;20384;-60
2021/12/13 02:43:51;0.00;0.00;0.62;0.00;0.00;0.62;2.30;2.03;;;21.50;29.10;;;;;;2265652;61;20454;-60
2021/12/13 02:46:37;0.00;0.00;0.62;0.00;0.00;0.62;2.90;2.20;;;21.50;29.10;;;;;;2266078;61;20469;-61
2021/12/13 02:49:22;0.00;0.00;0.62;0.00;0.00;0.62;3.10;2.40;;;21.50;29.10;;;;;;2265883;61;20364;-61
2021/12/13 02:52:13;0.00;0.00;0.62;0.00;0.00;0.62;3.30;3.00;;;21.50;29.10;;;;;;2266000;61;20383;-60
2021/12/13 02:55:05;0.00;0.00;0.62;0.00;0.00;0.62;3.50;3.20;;;21.50;29.20;;;;;;2266048;61;20600;-60
2021/12/13 02:57:53;0.00;0.00;0.62;0.00;0.00;0.62;3.30;3.00;;;21.50;29.20;;;;;;2265548;61;20544;-60
2021/12/13 03:00:48;0.00;0.00;0.62;0.00;0.00;0.62;3.03;2.60;;;21.40;29.20;;;;;;2266179;61;20361;-61
2021/12/13 03:03:38;0.00;0.00;0.62;0.00;0.00;0.62;3.33;2.90;;;21.40;29.20;;;;;;2266387;61;20361;-62
2021/12/13 03:06:30;0.00;0.00;0.62;0.00;0.00;0.62;3.40;3.10;;;21.40;29.20;;;;;;2265896;61;20432;-61
2021/12/13 03:09:19;0.00;0.00;0.62;0.00;0.00;0.62;3.60;3.30;;;21.40;29.30;;;;;;2265697;61;20717;-60
2021/12/13 03:12:08;0.00;0.00;0.62;0.00;0.00;0.62;3.40;2.73;;;21.40;29.30;;;;;;2265721;61;20381;-61
2021/12/13 03:15:04;0.00;0.00;0.62;0.00;0.00;0.62;3.50;3.20;;;21.40;29.30;;;;;;2266255;61;20349;-60
2021/12/13 03:17:55;0.00;0.00;0.62;0.00;0.00;0.62;3.33;2.83;;;21.40;29.30;;;;;;2265936;61;20755;-61
2021/12/13 03:21:27;0.00;0.00;0.62;0.00;0.00;0.62;4.03;3.63;;;21.40;29.30;;;;;;2265368;61;20361;-60
2021/12/13 03:24:36;0.00;0.00;0.62;0.00;0.00;0.62;4.53;3.60;;;21.40;29.40;;;;;;2261116;61;20441;-60
2021/12/13 03:27:36;0.00;0.00;0.62;0.00;0.00;0.62;3.90;3.50;;;21.40;29.40;;;;;;2265416;61;20365;-60
2021/12/13 03:30:27;0.00;0.00;0.62;0.00;0.00;0.62;4.23;3.27;;;21.40;29.50;;;;;;2265940;61;20392;-61
2021/12/13 03:33:15;0.00;0.00;0.62;0.00;0.00;0.62;4.67;3.60;;;21.40;29.50;;;;;;2266354;61;20445;-61
2021/12/13 03:36:06;0.00;0.00;0.62;0.00;0.00;0.62;4.20;3.80;;;21.40;29.60;;;;;;2265767;61;20361;-59
2021/12/13 03:38:55;0.00;0.00;0.62;0.00;0.00;0.62;4.33;3.63;;;21.30;29.50;;;;;;2265707;61;20384;-61
2021/12/13 03:41:43;0.00;0.00;0.62;0.00;0.00;0.62;5.33;3.80;;;21.30;30.10;;;;;;2265729;61;20392;-62
2021/12/13 03:44:33;0.00;0.00;0.62;0.00;0.00;0.62;5.10;4.40;;;21.30;29.60;;;;;;2266091;61;20749;-61
2021/12/13 03:47:26;0.00;0.00;0.62;0.00;0.00;0.62;4.50;4.07;;;21.30;29.70;;;;;;2265866;61;20437;-61
2021/12/13 03:50:20;0.00;0.00;0.62;0.00;0.00;0.62;4.30;3.90;;;21.30;29.70;;;;;;2265236;61;20407;-60
2021/12/13 03:53:11;0.00;0.00;0.62;0.00;0.00;0.62;5.00;3.50;;;21.30;29.70;;;;;;2265825;61;20721;-59
2021/12/13 03:56:02;0.00;0.00;0.62;0.00;0.00;0.62;4.03;3.37;;;21.30;29.70;;;;;;2266011;61;20350;-60
2021/12/13 03:58:50;0.00;0.00;0.62;0.00;0.00;0.62;4.80;4.03;;;21.30;29.70;;;;;;2265664;61;20453;-61
2021/12/13 04:01:41;0.00;0.00;0.62;0.00;0.00;0.62;4.33;3.93;;;21.30;29.80;;;;;;2265928;61;20385;-59
2021/12/13 04:04:38;0.00;0.00;0.62;0.00;0.00;0.62;3.70;3.40;;;21.30;29.80;;;;;;2265241;61;20737;-60
2021/12/13 04:07:27;0.00;0.00;0.62;0.00;0.00;0.62;4.93;3.80;;;21.30;29.80;;;;;;2266088;61;20364;-60
2021/12/13 04:10:16;0.00;0.00;0.62;0.00;0.00;0.62;4.50;3.97;;;21.20;29.70;;;;;;2266020;61;20393;-59
2021/12/13 04:13:11;0.00;0.00;0.62;0.00;0.00;0.62;3.87;3.43;;;21.30;29.80;;;;;;2265648;61;20396;-60
2021/12/13 04:21:46;0.00;0.00;0.62;0.00;0.00;0.62;4.03;3.37;;;21.30;29.80;;;;;;2266221;61;20372;-59
2021/12/13 04:24:37;0.00;0.00;0.62;0.00;0.00;0.62;3.93;3.57;;;21.30;29.70;;;;;;2265176;61;20606;-61
2021/12/13 04:27:27;0.00;0.00;0.62;0.00;0.00;0.62;3.93;3.53;;;21.30;29.70;;;;;;2264595;61;20353;-60
2021/12/13 04:30:20;0.00;0.00;0.62;0.00;0.00;0.62;3.50;3.20;;;21.30;29.70;;;;;;2264979;61;20361;-59
2021/12/13 04:33:09;0.00;0.00;0.62;0.00;0.00;0.62;3.47;3.17;;;21.30;29.70;;;;;;2265421;61;20353;-61
2021/12/13 04:35:58;0.00;0.00;0.62;0.00;0.00;0.62;3.13;2.83;;;21.30;29.70;;;;;;2265919;61;20418;-61
2021/12/13 04:38:51;0.00;0.00;0.62;0.00;0.00;0.62;3.90;3.50;;;21.30;29.70;;;;;;2265592;61;20411;-60
2021/12/13 04:41:43;0.00;0.00;0.62;0.00;0.00;0.62;4.10;3.70;;;21.30;29.70;;;;;;2265046;61;20397;-60
2021/12/13 04:44:35;0.00;0.00;0.62;0.00;0.00;0.62;4.40;3.67;;;21.40;29.80;;;;;;2265689;61;20365;-62
2021/12/13 04:47:26;0.00;0.00;0.62;0.00;0.00;0.62;3.83;3.40;;;21.40;29.80;;;;;;2265910;61;20570;-59
2021/12/13 04:50:18;0.00;0.00;0.62;0.00;0.00;0.62;4.07;3.63;;;21.40;29.80;;;;;;2265461;61;20392;-60
2021/12/13 04:53:04;0.00;0.00;0.62;0.00;0.00;0.62;3.70;3.37;;;21.40;29.80;;;;;;2265495;61;20361;-61
2021/12/13 04:55:53;0.00;0.00;0.62;0.00;0.00;0.62;4.07;3.67;;;21.30;29.70;;;;;;2265380;61;20356;-60
2021/12/13 04:58:39;0.00;0.00;0.62;0.00;0.00;0.62;3.43;3.13;;;21.40;29.80;;;;;;2266010;61;20365;-60
2021/12/13 05:01:25;0.00;0.00;0.62;0.00;0.00;0.62;3.90;3.27;;;21.40;29.80;;;;;;2265537;61;20377;-60
2021/12/13 05:04:11;0.00;0.00;0.62;0.00;0.00;0.62;4.70;3.43;;;21.40;29.80;;;;;;2264966;61;20396;-61
2021/12/13 05:06:59;0.00;0.00;0.62;0.00;0.00;0.62;3.50;3.20;;;21.40;29.80;;;;;;2265170;61;20451;-60
2021/12/13 05:09:47;0.00;0.00;0.62;0.00;0.00;0.62;3.30;3.00;;;21.40;29.80;;;;;;2265348;61;20384;-59
2021/12/13 05:12:33;0.00;0.00;0.62;0.00;0.00;0.62;3.27;2.97;;;21.40;29.80;;;;;;2265754;61;20721;-60
2021/12/13 05:15:25;0.00;0.00;0.62;0.00;0.00;0.62;3.60;3.13;;;21.40;29.80;;;;;;2265491;61;20361;-60
2021/12/13 05:18:19;0.00;0.00;0.62;0.00;0.00;0.62;3.00;2.70;;;21.40;29.80;;;;;;2265412;61;20364;-59
2021/12/13 05:21:10;0.00;0.00;0.62;0.00;0.00;0.62;3.73;3.00;;;21.40;29.80;;;;;;2265433;61;20634;-61
2021/12/13 05:24:01;0.00;0.00;0.62;0.00;0.00;0.62;3.17;2.87;;;21.40;29.80;;;;;;2266063;61;20403;-59
2021/12/13 05:26:56;0.00;0.00;0.62;0.00;0.00;0.62;3.67;3.10;;;21.40;29.90;;;;;;2265657;61;20380;-61
2021/12/13 05:29:48;0.00;0.00;0.62;0.00;0.00;0.62;3.47;3.17;;;21.40;29.90;;;;;;2265416;61;20581;-63
2021/12/13 05:32:39;0.00;0.00;0.62;0.00;0.00;0.62;3.90;3.07;;;21.40;29.90;;;;;;2265378;61;20388;-60
2021/12/13 05:35:28;0.00;0.00;0.62;0.00;0.00;0.62;3.30;2.90;;;21.40;29.90;;;;;;2265814;61;20615;-60
2021/12/13 05:38:27;0.00;0.00;0.62;0.00;0.00;0.62;3.47;3.13;;;21.40;30.00;;;;;;2265654;61;20430;-60
2021/12/13 05:41:22;0.00;0.00;0.62;0.00;0.00;0.62;3.70;3.10;;;21.30;29.90;;;;;;2265395;61;20372;-60
2021/12/13 05:44:11;0.00;0.00;0.62;0.00;0.00;0.62;4.07;3.53;;;21.30;30.00;;;;;;2265344;61;20365;-62
2021/12/13 05:47:00;0.00;0.00;0.62;0.00;0.00;0.62;4.80;3.63;;;21.30;30.00;;;;;;2265671;61;20381;-61
2021/12/13 05:49:46;0.00;0.00;0.62;0.00;0.00;0.62;3.57;3.10;;;21.30;30.00;;;;;;2265538;61;20424;-61
2021/12/13 05:52:34;0.00;0.00;0.62;0.00;0.00;0.62;5.23;3.77;;;21.30;30.00;;;;;;2265507;61;20672;-61
2021/12/13 05:55:18;0.00;0.00;0.62;0.00;0.00;0.62;3.40;3.07;;;21.30;30.00;;;;;;2265189;61;20429;-61
2021/12/13 05:58:04;0.00;0.00;0.62;0.00;0.00;0.62;3.63;3.20;;;21.30;30.00;;;;;;2264244;61;20361;-60
2021/12/13 06:00:52;0.00;0.00;0.62;0.00;0.00;0.62;3.80;3.30;;;21.30;30.00;;;;;;2265488;61;20395;-60
2021/12/13 06:03:45;0.00;0.00;0.62;0.00;0.00;0.62;4.20;3.57;;;21.30;30.00;;;;;;2265091;61;20353;-60
2021/12/13 06:06:33;0.00;0.00;0.62;0.00;0.00;0.62;3.50;2.93;;;21.30;30.00;;;;;;2265529;61;20473;-60
2021/12/13 06:09:46;0.00;0.00;0.62;0.00;0.00;0.62;4.00;2.90;;;21.30;30.00;;;;;;2265191;61;20357;-60
2021/12/13 06:12:37;0.00;0.00;0.62;0.00;0.00;0.62;3.33;3.03;;;21.30;30.00;;;;;;2265469;61;20377;-60
2021/12/13 06:15:33;0.00;0.00;0.62;0.00;0.00;0.62;6.00;3.90;;;21.30;30.00;;;;;;2265560;61;20443;-62
2021/12/13 06:18:23;0.00;0.00;0.62;0.00;0.00;0.62;4.43;3.63;;;21.40;30.10;;;;;;2265212;61;20365;-62
2021/12/13 06:21:32;0.00;0.00;0.62;0.00;0.00;0.62;4.00;3.40;;;21.30;30.00;;;;;;2265345;61;20385;-62
2021/12/13 06:24:26;0.00;0.00;0.62;0.00;0.00;0.62;3.00;2.70;;;21.40;30.10;;;;;;2265345;61;20368;-61
2021/12/13 06:27:18;0.00;0.00;0.62;0.00;0.00;0.62;5.17;4.23;;;21.40;30.20;;;;;;2265493;61;20426;-60
2021/12/13 06:30:11;0.00;0.00;0.62;0.00;0.00;0.62;3.73;2.97;;;21.40;30.20;;;;;;2265364;61;20380;-61
2021/12/13 06:33:00;0.00;0.00;0.62;0.00;0.00;0.62;3.93;3.13;;;21.30;30.20;;;;;;2265098;61;20457;-62
2021/12/13 06:35:51;0.00;0.00;0.62;0.00;0.00;0.62;4.70;3.40;;;21.30;30.20;;;;;;2265182;61;20349;-62
2021/12/13 06:38:50;0.00;0.00;0.62;0.00;0.00;0.62;4.10;3.63;;;21.40;30.20;;;;;;2265310;61;20393;-61
2021/12/13 06:41:41;0.00;0.00;0.62;0.00;0.00;0.62;4.27;3.60;;;21.40;30.20;;;;;;2265396;61;20465;-62
2021/12/13 06:44:34;0.00;0.00;0.62;0.00;0.00;0.62;3.77;3.43;;;21.40;30.20;;;;;;2265344;61;20426;-61
2021/12/13 06:47:22;0.00;0.00;0.62;0.00;0.00;0.62;5.43;4.90;;;21.40;30.20;;;;;;2265059;61;20400;-61
2021/12/13 06:50:07;0.00;0.00;0.62;0.00;0.00;0.62;4.90;4.40;;;21.30;30.20;;;;;;2265280;61;20394;-61
2021/12/13 06:53:07;0.00;0.00;0.62;0.00;0.00;0.62;5.23;4.70;;;21.30;30.40;;;;;;2266037;61;20809;-59
2021/12/13 06:55:53;0.00;0.00;0.62;0.00;0.00;0.62;4.50;4.07;;;21.30;30.50;;;;;;2265852;61;20353;-60
2021/12/13 06:58:38;0.00;0.00;0.62;0.00;0.00;0.62;4.20;3.80;;;21.30;30.40;;;;;;2265921;61;20447;-61
2021/12/13 07:01:22;0.00;0.00;0.62;0.00;0.00;0.62;4.20;2.97;;;21.30;30.40;;;;;;2265686;61;20381;-63
2021/12/13 07:04:10;0.00;0.00;0.62;0.00;0.00;0.62;4.03;3.10;;;21.30;30.40;;;;;;2266156;61;20357;-60
2021/12/13 07:07:10;0.00;0.00;0.62;0.00;0.00;0.62;3.20;2.90;;;21.30;30.40;;;;;;2266078;61;20380;-61
2021/12/13 07:10:00;0.00;0.00;0.62;0.00;0.00;0.62;3.00;2.47;;;21.30;30.30;;;;;;2265615;61;20384;-61
2021/12/13 07:12:51;0.00;0.00;0.62;0.00;0.00;0.62;2.70;2.50;;;21.40;30.40;;;;;;2265680;61;20906;-60
2021/12/13 07:15:42;0.00;0.00;0.62;0.00;0.00;0.62;4.33;2.80;;;21.40;30.40;;;;;;2265907;61;20365;-60
2021/12/13 07:18:41;0.00;0.00;0.62;0.00;0.00;0.62;4.07;3.67;;;21.40;30.40;;;;;;2265802;61;20721;-62
2021/12/13 07:21:32;0.00;0.00;0.62;0.00;0.00;0.62;2.73;2.40;;;21.40;30.30;;;;;;2265950;61;20428;-61
2021/12/13 07:24:26;0.00;0.00;0.62;0.00;0.00;0.62;2.60;2.10;;;21.40;30.30;;;;;;2265708;61;20365;-61
2021/12/13 07:27:13;0.00;0.00;0.62;0.00;0.00;0.62;2.17;1.97;;;21.40;30.20;;;;;;2265930;61;20385;-61
2021/12/13 07:30:09;0.00;0.00;0.62;0.00;0.00;0.62;2.73;2.20;;;21.50;30.20;;;;;;2266095;61;20361;-60
2021/12/13 07:32:58;0.00;0.00;0.62;0.00;0.00;0.62;2.30;1.77;;;21.50;30.20;;;;;;2265747;61;20405;-60
2021/12/13 07:35:47;0.00;0.00;0.62;0.00;0.00;0.62;2.77;2.17;;;21.50;30.20;;;;;;2265945;61;20788;-61
2021/12/13 07:38:33;0.00;0.00;0.62;0.00;0.00;0.62;3.00;2.20;;;21.50;30.10;;;;;;2265570;61;20388;-60
2021/12/13 07:41:18;0.00;0.00;0.62;0.00;0.00;0.62;2.20;1.67;;;21.50;30.10;;;;;;2265853;61;20408;-61
2021/12/13 07:44:04;0.00;0.00;0.62;0.00;0.00;0.62;2.23;2.03;;;21.50;30.00;;;;;;2265810;61;20433;-61
2021/12/13 07:47:00;0.00;0.00;0.62;0.00;0.00;0.62;3.50;1.70;;;21.50;30.00;;;;;;2265594;61;20392;-60
2021/12/13 07:49:49;0.00;0.00;0.62;0.00;0.00;0.62;2.63;2.07;;;21.60;30.10;;;;;;2265342;61;20369;-60
2021/12/13 07:52:39;0.00;0.00;0.62;0.00;0.00;0.62;1.97;1.63;;;21.60;30.00;;;;;;2265844;61;20449;-61
2021/12/13 07:55:28;0.00;0.00;0.62;0.00;0.00;0.62;2.20;1.70;;;21.60;30.00;;;;;;2265636;61;20392;-60
2021/12/13 07:58:30;0.00;0.00;0.62;0.00;0.00;0.62;2.10;1.70;;;21.60;30.00;;;;;;2265717;61;20361;-65
2021/12/13 08:01:21;0.00;0.00;0.62;0.00;0.00;0.62;3.43;1.90;;;21.60;30.00;;;;;;2265691;61;20430;-61
2021/12/13 08:04:12;0.00;0.00;0.62;0.00;0.00;0.62;2.40;1.63;;;21.60;30.00;;;;;;2262577;61;20743;-60
2021/12/13 08:07:05;0.00;0.00;0.62;0.00;0.00;0.62;2.10;1.50;;;21.60;30.00;;;;;;2266172;61;20393;-62
2021/12/13 08:09:54;0.00;0.00;0.62;0.00;0.00;0.62;2.53;1.80;;;21.60;29.90;;;;;;2265355;61;20747;-61
2021/12/13 08:12:43;0.00;0.00;0.62;0.00;0.00;0.62;2.20;1.80;;;21.60;29.90;;;;;;2265713;61;20377;-60
2021/12/13 08:15:34;0.00;0.00;0.62;0.00;0.00;0.62;2.07;1.50;;;21.70;30.00;;;;;;2265687;61;20361;-61
2021/12/13 08:18:28;0.00;0.00;0.62;0.00;0.00;0.62;2.20;1.50;;;21.70;29.90;;;;;;2265683;61;20345;-61
2021/12/13 08:21:24;0.00;0.00;0.62;0.00;0.00;0.62;1.90;1.50;;;21.70;29.90;;;;;;2265822;61;20733;-60
2021/12/13 08:24:21;0.00;0.00;0.62;0.00;0.00;0.62;2.10;1.60;;;21.70;29.90;;;;;;2265839;61;20353;-60
2021/12/13 08:27:12;0.00;0.00;0.62;0.00;0.00;0.62;1.70;1.40;;;21.70;29.90;;;;;;2265796;61;20389;-61
2021/12/13 08:30:13;0.00;0.00;0.62;0.00;0.00;0.62;1.70;1.30;;;21.70;29.80;;;;;;2265142;61;20349;-61
2021/12/13 08:33:08;0.00;0.00;0.62;0.00;0.00;0.62;2.27;1.43;;;21.70;29.80;;;;;;2265690;61;20422;-60
2021/12/13 08:36:01;0.00;0.00;0.62;0.00;0.00;0.62;1.80;1.37;;;21.70;29.80;;;;;;2265926;61;20387;-61
2021/12/13 08:38:50;0.00;0.00;0.62;0.00;0.00;0.62;2.17;1.50;;;21.70;29.80;;;;;;2265595;61;20361;-60
2021/12/13 08:41:40;0.00;0.00;0.62;0.00;0.00;0.62;1.73;1.40;;;21.70;29.80;;;;;;2265410;61;20423;-61
2021/12/13 08:44:29;0.00;0.00;0.62;0.00;0.00;0.62;1.67;1.30;;;21.70;29.70;;;;;;2265638;61;20365;-62
2021/12/13 08:47:18;0.00;0.00;0.62;0.00;0.00;0.62;2.40;1.57;;;21.80;29.80;;;;;;2265436;61;20392;-60
2021/12/13 08:50:11;0.00;0.00;0.62;0.00;0.00;0.62;1.80;1.30;;;21.80;30.20;;;;;;2265579;61;20376;-61
2021/12/13 08:53:02;0.00;0.00;0.62;0.00;0.00;0.62;2.13;1.87;;;21.80;29.80;;;;;;2265268;61;20384;-61
2021/12/13 08:55:58;0.00;0.00;0.62;0.00;0.00;0.62;1.73;1.20;;;21.80;29.70;;;;;;2265741;61;20373;-61
2021/12/13 08:58:52;0.00;0.00;0.62;0.00;0.00;0.62;2.10;1.90;;;21.80;29.70;;;;;;2265915;61;20508;-60
2021/12/13 09:01:42;0.00;0.00;0.62;0.00;0.00;0.62;1.50;1.30;;;21.80;29.70;;;;;;2265443;61;20636;-60
2021/12/13 09:04:31;0.00;0.00;0.62;0.00;0.00;0.62;1.90;1.40;;;21.80;29.70;;;;;;2265620;61;20420;-60
2021/12/13 09:07:21;0.00;0.00;0.62;0.00;0.00;0.62;1.80;1.50;;;21.80;30.10;;;;;;2265322;61;20385;-61
2021/12/13 09:10:07;0.00;0.00;0.62;0.00;0.00;0.62;1.90;1.57;;;21.80;29.60;;;;;;2265480;61;20589;-60
2021/12/13 09:12:57;0.00;0.00;0.62;0.00;0.00;0.62;1.90;1.50;;;21.90;29.70;;;;;;2265581;61;20415;-61
2021/12/13 09:15:43;0.00;0.00;0.62;0.00;0.00;0.62;1.90;1.30;;;21.90;29.70;;;;;;2265260;61;20357;-61
2021/12/13 09:18:28;0.00;0.00;0.62;0.00;0.00;0.62;1.87;1.47;;;21.90;29.60;;;;;;2265075;61;20361;-61
2021/12/13 09:21:20;0.00;0.00;0.62;0.00;0.00;0.62;2.00;1.43;;;21.90;29.60;;;;;;2265719;61;20610;-60
2021/12/13 09:24:08;0.00;0.00;0.62;0.00;0.00;0.62;1.70;1.20;;;21.90;29.60;;;;;;2265494;61;20362;-61
2021/12/13 09:26:57;0.00;0.00;0.62;0.00;0.00;0.62;1.73;1.13;;;21.90;29.50;;;;;;2265647;61;20419;-61
2021/12/13 09:30:18;0.00;0.00;0.62;0.00;0.00;0.62;1.60;1.00;;;21.90;29.50;;;;;;2265169;61;20362;-62
2021/12/13 09:33:10;0.00;0.00;0.62;0.00;0.00;0.62;2.13;1.67;;;21.90;29.50;;;;;;2265193;61;20582;-62
2021/12/13 09:35:58;0.00;0.00;0.62;0.00;0.00;0.62;1.90;1.40;;;21.90;29.50;;;;;;2265958;61;20353;-61
2021/12/13 09:38:51;0.00;0.00;0.62;0.00;0.00;0.62;2.17;1.47;;;21.90;29.50;;;;;;2265245;61;20393;-61
2021/12/13 09:41:44;0.00;0.00;0.62;0.00;0.00;0.62;1.80;1.20;;;21.90;29.50;;;;;;2265546;61;20401;-60
2021/12/13 09:44:34;0.00;0.00;0.62;0.00;0.00;0.62;1.70;1.20;;;21.90;29.50;;;;;;2265281;61;20373;-61
2021/12/13 09:47:24;0.00;0.00;0.62;0.00;0.00;0.62;1.73;1.30;;;21.90;29.40;;;;;;2265556;61;20393;-60
2021/12/13 09:50:14;0.00;0.00;0.62;0.00;0.00;0.62;1.90;1.37;;;21.90;29.40;;;;;;2265451;61;20400;-60
2021/12/13 09:53:03;0.00;0.00;0.62;0.00;0.00;0.62;2.10;1.47;;;22.00;29.50;;;;;;2265384;61;20376;-60
2021/12/13 09:55:52;0.00;0.00;0.62;0.00;0.00;0.62;1.50;1.20;;;21.90;29.40;;;;;;2265436;61;20369;-61
2021/12/13 09:58:43;0.00;0.00;0.62;0.00;0.00;0.62;1.53;1.27;;;21.90;29.40;;;;;;2264971;61;20353;-63
2021/12/13 10:01:33;0.00;0.00;0.62;0.00;0.00;0.62;1.60;1.20;;;21.90;29.40;;;;;;2265555;61;20404;-60
2021/12/13 10:04:27;0.00;0.00;0.62;0.00;0.00;0.62;1.90;1.60;;;21.90;29.30;;;;;;2265457;61;20477;-61
2021/12/13 10:07:18;0.00;0.00;0.62;0.00;0.00;0.62;1.47;1.00;;;21.90;29.30;;;;;;2265368;61;20609;-61
2021/12/13 10:10:10;0.00;0.00;0.62;0.00;0.00;0.62;1.50;1.10;;;22.00;29.40;;;;;;2265117;61;20361;-61
2021/12/13 10:13:03;0.00;0.00;0.62;0.00;0.00;0.62;1.80;1.30;;;22.00;29.40;;;;;;2265800;61;20432;-60
2021/12/13 10:15:53;0.00;0.00;0.62;0.00;0.00;0.62;1.70;1.00;;;22.00;29.40;;;;;;2265286;61;20421;-61
2021/12/13 10:18:42;0.00;0.00;0.62;0.00;0.00;0.62;1.43;1.20;;;22.00;29.30;;;;;;2265597;61;20357;-61
2021/12/13 10:21:33;0.00;0.00;0.62;0.00;0.00;0.62;2.03;1.27;;;22.00;29.30;;;;;;2265347;61;20381;-62
2021/12/13 10:24:28;0.00;0.00;0.62;0.00;0.00;0.62;1.70;1.27;;;22.00;29.30;;;;;;2265548;61;20484;-60
2021/12/13 10:27:15;0.00;0.00;0.62;0.00;0.00;0.62;1.67;1.30;;;22.00;29.30;;;;;;2265845;61;20787;-60
2021/12/13 10:30:06;0.00;0.00;0.62;0.00;0.00;0.62;1.80;1.40;;;22.00;29.30;;;;;;2265881;61;20360;-60
2021/12/13 10:32:53;0.00;0.00;0.62;0.00;0.00;0.62;1.53;1.10;;;22.00;29.30;;;;;;2266185;61;20821;-61
2021/12/13 10:35:41;0.00;0.00;0.62;0.00;0.00;0.62;1.67;1.37;;;22.10;29.30;;;;;;2266166;61;20939;-61
2021/12/13 10:38:33;0.00;0.00;0.62;0.00;0.00;0.62;1.60;1.20;;;22.00;29.30;;;;;;2266121;61;20415;-60
2021/12/13 10:41:24;0.00;0.00;0.62;0.00;0.00;0.62;1.50;1.10;;;22.00;29.20;;;;;;2266178;61;20389;-62
2021/12/13 10:44:13;0.00;0.00;0.62;0.00;0.00;0.62;1.40;1.00;;;22.00;29.20;;;;;;2265807;61;20400;-61
2021/12/13 10:47:03;0.00;0.00;0.62;0.00;0.00;0.62;1.77;1.10;;;22.10;29.30;;;;;;2265986;61;20757;-61
2021/12/13 10:49:50;0.00;0.00;0.62;0.00;0.00;0.62;1.50;1.00;;;22.10;29.30;;;;;;2266303;61;20420;-61
2021/12/13 10:52:41;0.00;0.00;0.62;0.00;0.00;0.62;1.60;1.27;;;22.10;29.30;;;;;;2266104;61;20381;-61
2021/12/13 10:55:44;0.00;0.00;0.62;0.00;0.00;0.62;1.60;1.10;;;22.10;29.30;;;;;;2266179;61;20380;-61
2021/12/13 10:58:34;0.00;0.00;0.62;0.00;0.00;0.62;1.50;1.07;;;22.10;29.20;;;;;;2265685;61;20360;-60
2021/12/13 11:01:23;0.00;0.00;0.62;0.00;0.00;0.62;1.50;1.10;;;22.10;29.20;;;;;;2266144;61;20377;-61
2021/12/13 11:04:16;0.00;0.00;0.62;0.00;0.00;0.62;1.53;1.13;;;22.10;29.20;;;;;;2265767;61;20364;-61
2021/12/13 11:07:05;0.00;0.00;0.62;0.00;0.00;0.62;1.40;1.00;;;22.10;29.20;;;;;;2265958;61;20749;-61
2021/12/13 11:09:55;0.00;0.00;0.62;0.00;0.00;0.62;1.63;1.30;;;22.10;29.20;;;;;;2265813;61;20453;-61
2021/12/13 11:12:45;0.00;0.00;0.62;0.00;0.00;0.62;1.60;1.30;;;22.10;29.20;;;;;;2266066;61;20399;-62
2021/12/13 11:15:35;0.00;0.00;0.62;0.00;0.00;0.62;1.53;1.07;;;22.10;29.20;;;;;;2266110;61;20361;-60
2021/12/13 11:18:30;0.00;0.00;0.62;0.00;0.00;0.62;1.90;1.30;;;22.10;29.20;;;;;;2266083;61;20373;-61
2021/12/13 11:21:20;0.00;0.00;0.62;0.00;0.00;0.62;1.70;1.20;;;22.10;29.10;;;;;;2265905;61;20385;-61
2021/12/13 11:24:08;0.00;0.00;0.62;0.00;0.00;0.62;1.70;1.37;;;22.10;29.10;;;;;;2265726;61;20411;-61
2021/12/13 11:26:58;0.00;0.00;0.62;0.00;0.00;0.62;1.40;1.00;;;22.10;29.10;;;;;;2266412;61;20389;-61